Time;durP1;ratioP1;P1;durP2;ratioP2;P2;SDS_P1;SDS_P2;PMS_P1;PMS_P2;Temp;Humidity;BMP_temperature;BMP_pressure;BME280_temperature;BME280_humidity;BME280_pressure;Samples;Min_cycle;Max_cycle;Signal;HPM_P1;HPM_P2
2024/04/18 00:01:38;;;;;;;2.10;0.30;;;;;;;5.87;100.00;101546.19;5396007;26;20341;-80
2024/04/18 00:04:05;;;;;;;0.25;0.22;;;;;;;6.16;100.00;101581.59;5365046;26;20296;-80
2024/04/18 00:06:33;;;;;;;1.20;0.30;;;;;;;6.16;100.00;101582.44;5362498;26;20599;-80
2024/04/18 00:09:00;;;;;;;0.20;0.20;;;;;;;6.08;100.00;101578.84;5389232;26;20312;-81
2024/04/18 00:11:28;;;;;;;1.03;0.30;;;;;;;6.11;100.00;101591.97;5398202;26;20646;-80
2024/04/18 00:13:55;;;;;;;0.47;0.43;;;;;;;5.99;100.00;101577.16;5400102;26;20640;-80
2024/04/18 00:16:22;;;;;;;2.07;0.20;;;;;;;5.97;100.00;101587.19;5404615;26;20714;-80
2024/04/18 00:18:49;;;;;;;1.97;0.20;;;;;;;5.87;100.00;101587.31;5390278;26;20873;-80
2024/04/18 00:21:17;;;;;;;1.47;0.20;;;;;;;5.67;100.00;101558.16;5386411;26;20266;-80
2024/04/18 00:23:44;;;;;;;2.30;0.30;;;;;;;5.70;100.00;101572.06;5390991;26;20264;-80
2024/04/18 00:26:12;;;;;;;1.43;0.40;;;;;;;5.54;100.00;101565.78;5397938;26;20257;-80
2024/04/18 00:28:39;;;;;;;1.00;0.30;;;;;;;5.61;100.00;101597.19;5376082;26;20254;-80
2024/04/18 00:31:06;;;;;;;1.40;0.30;;;;;;;5.60;100.00;101594.66;5391831;26;20905;-80
2024/04/18 00:33:33;;;;;;;0.83;0.20;;;;;;;5.60;100.00;101600.91;5391431;26;20261;-80
2024/04/18 00:36:01;;;;;;;1.17;0.30;;;;;;;5.50;100.00;101600.13;5388656;26;20332;-80
2024/04/18 00:38:29;;;;;;;3.17;0.30;;;;;;;5.25;100.00;101566.94;5388503;26;20295;-80
2024/04/18 00:40:56;;;;;;;0.30;0.20;;;;;;;5.39;100.00;101598.56;5392545;26;20254;-80
2024/04/18 00:43:23;;;;;;;0.70;0.20;;;;;;;5.29;100.00;101596.97;5390386;26;20299;-80
2024/04/18 00:45:52;;;;;;;1.23;0.30;;;;;;;5.30;100.00;101596.81;5390266;26;20881;-80
2024/04/18 00:48:21;;;;;;;2.23;0.33;;;;;;;5.27;100.00;101605.16;5382742;26;20257;-80
2024/04/18 00:50:57;;;;;;;0.53;0.23;;;;;;;5.20;100.00;101597.91;5395735;26;20272;-80
2024/04/18 00:53:26;;;;;;;0.30;0.30;;;;;;;5.23;100.00;101608.34;5384842;26;20257;-79
2024/04/18 00:55:54;;;;;;;0.60;0.40;;;;;;;5.19;100.00;101612.31;5397854;26;20276;-80
2024/04/18 00:58:21;;;;;;;0.93;0.37;;;;;;;5.06;100.00;101601.13;5392744;26;20365;-80
2024/04/18 01:00:50;;;;;;;1.40;0.40;;;;;;;5.03;100.00;101596.91;5387347;26;20262;-80
2024/04/18 01:03:18;;;;;;;0.77;0.50;;;;;;;5.10;100.00;101603.34;5390735;26;20266;-80
2024/04/18 01:05:46;;;;;;;0.83;0.30;;;;;;;5.07;100.00;101602.84;5385778;26;20309;-80
2024/04/18 01:08:13;;;;;;;1.50;0.50;;;;;;;5.05;100.00;101605.66;5393335;26;20265;-80
2024/04/18 01:10:40;;;;;;;0.93;0.37;;;;;;;5.02;100.00;101605.97;5399450;26;20265;-80
2024/04/18 01:13:07;;;;;;;2.27;0.30;;;;;;;5.05;100.00;101618.22;5399623;26;20860;-80
2024/04/18 01:15:35;;;;;;;0.33;0.30;;;;;;;5.00;100.00;101607.97;5352361;26;20307;-80
2024/04/18 01:18:02;;;;;;;0.60;0.30;;;;;;;5.10;100.00;101627.50;5398901;26;20306;-80
2024/04/18 01:20:31;;;;;;;0.30;0.30;;;;;;;4.90;100.00;101591.09;5401106;26;20605;-79
2024/04/18 01:22:58;;;;;;;1.23;0.30;;;;;;;4.97;100.00;101613.63;5345523;26;20284;-80
2024/04/18 01:25:25;;;;;;;0.87;0.30;;;;;;;4.97;100.00;101608.28;5403062;26;20261;-80
2024/04/18 01:27:53;;;;;;;0.50;0.30;;;;;;;5.07;100.00;101625.13;5389548;26;20261;-80
2024/04/18 01:30:20;;;;;;;1.67;0.40;;;;;;;4.98;100.00;101631.41;5402040;26;20807;-80
2024/04/18 01:32:47;;;;;;;0.83;0.40;;;;;;;4.99;100.00;101643.81;5406390;26;20268;-80
2024/04/18 01:35:15;;;;;;;1.03;0.30;;;;;;;4.95;100.00;101637.06;5401808;26;20385;-80
2024/04/18 01:37:42;;;;;;;0.97;0.30;;;;;;;4.93;100.00;101647.13;5382000;26;20258;-80
2024/04/18 01:40:10;;;;;;;1.77;0.30;;;;;;;4.89;100.00;101653.78;5397456;26;20303;-80
2024/04/18 01:42:37;;;;;;;0.83;0.30;;;;;;;4.74;100.00;101623.13;5392533;26;20743;-81
2024/04/18 01:45:05;;;;;;;0.47;0.30;;;;;;;4.72;100.00;101614.41;5391935;26;20273;-80
2024/04/18 01:47:32;;;;;;;1.27;0.40;;;;;;;4.84;100.00;101633.78;5393132;26;20276;-80
2024/04/18 01:50:00;;;;;;;1.13;0.40;;;;;;;4.86;100.00;101646.03;5389886;26;20373;-80
2024/04/18 01:52:28;;;;;;;2.00;0.40;;;;;;;4.84;100.00;101650.72;5400297;26;20369;-80
2024/04/18 01:54:55;;;;;;;1.23;0.60;;;;;;;4.69;100.00;101620.06;5399089;26;20715;-80
2024/04/18 01:57:22;;;;;;;1.60;0.50;;;;;;;4.55;100.00;101612.50;5380326;26;20767;-80
2024/04/18 01:59:49;;;;;;;1.17;0.57;;;;;;;4.75;100.00;101656.97;5397491;26;20329;-80
2024/04/18 02:02:18;;;;;;;1.27;0.57;;;;;;;4.45;100.00;101627.81;5401836;26;20261;-80
2024/04/18 02:04:45;;;;;;;1.80;0.60;;;;;;;4.65;100.00;101648.16;5401096;26;20700;-80
2024/04/18 02:07:12;;;;;;;1.43;0.80;;;;;;;4.73;100.00;101652.75;5398541;26;20639;-80
2024/04/18 02:09:40;;;;;;;2.63;0.80;;;;;;;4.58;100.00;101636.34;5390179;26;20360;-80
2024/04/18 02:12:07;;;;;;;1.67;0.80;;;;;;;4.57;100.00;101634.66;5366358;26;20382;-80
2024/04/18 02:14:34;;;;;;;2.80;0.80;;;;;;;4.72;100.00;101661.78;5392208;26;20261;-79
2024/04/18 02:17:02;;;;;;;1.80;0.70;;;;;;;4.66;100.00;101651.66;5397846;26;20269;-80
2024/04/18 02:19:30;;;;;;;2.50;0.97;;;;;;;4.50;100.00;101630.03;5386322;26;20761;-80
2024/04/18 02:21:57;;;;;;;0.93;0.53;;;;;;;4.76;100.00;101674.75;5402370;26;20809;-80
2024/04/18 02:24:24;;;;;;;2.10;0.70;;;;;;;4.72;100.00;101672.53;5394545;26;20627;-80
2024/04/18 02:26:52;;;;;;;2.00;0.80;;;;;;;4.57;100.00;101650.75;5361385;26;20395;-80
2024/04/18 02:29:19;;;;;;;3.83;0.83;;;;;;;4.68;100.00;101682.72;5371367;26;20872;-80
2024/04/18 02:31:46;;;;;;;2.97;0.80;;;;;;;4.51;100.00;101654.00;5389063;26;20295;-80
2024/04/18 02:34:14;;;;;;;3.03;0.83;;;;;;;4.73;100.00;101690.28;5404076;26;20261;-80
2024/04/18 02:36:41;;;;;;;3.03;0.70;;;;;;;4.74;100.00;101697.34;5363352;26;20307;-80
2024/04/18 02:39:08;;;;;;;4.10;0.73;;;;;;;4.72;100.00;101697.50;5394954;26;20833;-80
2024/04/18 02:41:35;;;;;;;2.33;1.20;;;;;;;4.82;100.00;101692.91;5394809;26;20261;-80
2024/04/18 02:44:03;;;;;;;3.33;1.07;;;;;;;4.76;100.00;101674.75;5402106;26;20257;-80
2024/04/18 02:46:30;;;;;;;6.80;1.53;;;;;;;4.76;100.00;101682.81;5386790;26;20262;-80
2024/04/18 02:48:57;;;;;;;3.67;1.20;;;;;;;4.84;100.00;101684.72;5390497;26;20730;-80
2024/04/18 02:51:24;;;;;;;2.90;1.30;;;;;;;5.00;100.00;101709.91;5400175;26;20342;-80
2024/04/18 02:53:51;;;;;;;5.20;1.77;;;;;;;5.08;100.00;101709.13;5390328;26;20301;-80
2024/04/18 02:56:19;;;;;;;3.70;1.83;;;;;;;4.93;100.00;101676.63;5400562;26;20268;-80
2024/04/18 02:58:46;;;;;;;4.30;2.27;;;;;;;5.15;100.00;101711.03;5371163;26;20405;-80
2024/04/18 03:01:13;;;;;;;4.83;2.40;;;;;;;5.17;100.00;101711.75;5394317;26;20335;-80
2024/04/18 03:03:41;;;;;;;5.50;2.13;;;;;;;5.05;100.00;101707.59;5366845;26;20357;-80
2024/04/18 03:06:08;;;;;;;4.57;2.30;;;;;;;5.12;100.00;101713.19;5399882;26;20289;-80
2024/04/18 03:08:36;;;;;;;3.97;2.30;;;;;;;5.10;100.00;101709.81;5365012;26;20258;-80
2024/04/18 03:11:04;;;;;;;7.73;2.17;;;;;;;5.07;100.00;101721.69;5392255;26;20253;-80
2024/04/18 03:13:31;;;;;;;6.83;2.30;;;;;;;5.02;100.00;101723.97;5367306;26;20830;-80
2024/04/18 03:15:58;;;;;;;2.03;1.70;;;;;;;4.95;100.00;101711.34;5396127;26;20262;-80
2024/04/18 03:18:25;;;;;;;5.00;2.13;;;;;;;5.04;100.00;101732.75;5363067;26;20736;-80
2024/04/18 03:20:53;;;;;;;5.60;2.80;;;;;;;5.11;100.00;101727.63;5402707;26;20300;-80
2024/04/18 03:23:21;;;;;;;5.63;2.40;;;;;;;5.19;100.00;101731.22;5398810;26;20258;-80
2024/04/18 03:25:49;;;;;;;6.10;2.33;;;;;;;5.18;100.00;101723.31;5399524;26;20642;-80
2024/04/18 03:28:16;;;;;;;3.77;1.93;;;;;;;5.12;100.00;101719.41;5365672;26;20303;-80
2024/04/18 03:30:44;;;;;;;6.20;2.27;;;;;;;5.06;100.00;101711.09;5400745;26;20257;-80
2024/04/18 03:33:12;;;;;;;3.60;1.60;;;;;;;5.07;100.00;101715.50;5395519;26;20304;-80
2024/04/18 03:35:39;;;;;;;2.83;2.17;;;;;;;4.92;100.00;101701.75;5387032;26;20261;-80
2024/04/18 03:38:07;;;;;;;7.57;2.43;;;;;;;4.92;100.00;101720.53;5396622;26;20376;-80
2024/04/18 03:40:35;;;;;;;3.83;1.97;;;;;;;4.95;100.00;101738.97;5398839;26;20257;-79
2024/04/18 03:43:04;;;;;;;2.40;2.00;;;;;;;4.74;100.00;101725.00;5397436;26;20302;-80
2024/04/18 03:45:31;;;;;;;6.50;1.87;;;;;;;4.84;100.00;101746.41;5398738;26;20872;-80
2024/04/18 03:47:59;;;;;;;3.10;1.80;;;;;;;4.69;100.00;101732.66;5393189;26;20266;-80
2024/04/18 03:50:27;;;;;;;3.77;1.63;;;;;;;4.74;100.00;101750.94;5395312;26;20269;-80
2024/04/18 03:52:54;;;;;;;3.83;2.10;;;;;;;4.26;100.00;101681.50;5399033;26;20257;-80
2024/04/18 03:55:21;;;;;;;4.73;1.90;;;;;;;4.72;100.00;101761.84;5392230;26;20271;-80
2024/04/18 03:57:49;;;;;;;4.97;2.03;;;;;;;4.70;100.00;101761.13;5391588;26;20312;-80
2024/04/18 04:00:16;;;;;;;4.20;2.40;;;;;;;4.71;100.00;101767.34;5392346;26;20261;-80
2024/04/18 04:02:47;;;;;;;3.10;2.10;;;;;;;4.63;100.00;101759.22;5400771;26;20269;-80
2024/04/18 04:05:17;;;;;;;2.40;1.90;;;;;;;4.70;100.00;101769.19;5401320;26;20300;-79
2024/04/18 04:07:44;;;;;;;4.63;2.30;;;;;;;4.65;100.00;101771.47;5401227;26;20976;-80
2024/04/18 04:10:12;;;;;;;3.90;2.03;;;;;;;4.67;100.00;101776.69;5401049;26;20264;-80
2024/04/18 04:12:39;;;;;;;4.07;2.50;;;;;;;4.57;100.00;101766.00;5387586;26;20723;-80
2024/04/18 04:15:08;;;;;;;6.20;2.47;;;;;;;4.73;100.00;101779.63;5400278;26;20366;-80
2024/04/18 04:17:38;;;;;;;3.43;2.27;;;;;;;4.69;100.00;101764.81;5384652;26;20265;-80
2024/04/18 04:20:06;;;;;;;3.43;2.17;;;;;;;4.86;100.00;101790.84;5400375;26;20272;-80
2024/04/18 04:22:33;;;;;;;5.93;2.50;;;;;;;4.89;100.00;101785.19;5396942;26;20644;-80
2024/04/18 04:25:00;;;;;;;4.83;2.60;;;;;;;4.85;100.00;101759.66;5398950;26;20308;-80
2024/04/18 04:27:27;;;;;;;2.40;2.20;;;;;;;5.07;100.00;101796.81;5401759;26;20265;-80
2024/04/18 04:29:54;;;;;;;5.27;2.73;;;;;;;5.03;100.00;101773.13;5369339;26;20260;-80
2024/04/18 04:32:23;;;;;;;6.60;2.40;;;;;;;5.27;100.00;101787.63;5343615;26;20308;-79
2024/04/18 04:34:51;;;;;;;6.53;2.40;;;;;;;5.34;100.00;101780.69;5384082;26;20605;-80
2024/04/18 04:37:19;;;;;;;6.30;2.60;;;;;;;5.21;100.00;101750.69;5400464;26;20374;-80
2024/04/18 04:39:47;;;;;;;2.40;2.03;;;;;;;5.52;100.00;101793.28;5395415;26;20257;-80
2024/04/18 04:42:14;;;;;;;3.93;2.07;;;;;;;5.39;100.00;101778.38;5395183;26;20266;-80
2024/04/18 04:44:42;;;;;;;5.10;2.37;;;;;;;5.20;100.00;101759.72;5383244;26;20265;-80
2024/04/18 04:47:09;;;;;;;3.83;2.00;;;;;;;5.25;100.00;101789.66;5397793;26;20265;-80
2024/04/18 04:49:36;;;;;;;4.43;2.17;;;;;;;5.31;100.00;101810.50;5381112;26;20307;-80
2024/04/18 04:52:07;;;;;;;7.43;2.43;;;;;;;5.28;100.00;101818.84;5401613;26;20312;-80
2024/04/18 04:54:34;;;;;;;4.10;1.97;;;;;;;5.21;100.00;101809.72;5397614;26;20795;-80
2024/04/18 04:57:01;;;;;;;5.83;2.17;;;;;;;5.25;100.00;101816.47;5388750;26;20303;-80
2024/04/18 04:59:28;;;;;;;5.17;2.13;;;;;;;5.00;100.00;101786.81;5402296;26;20308;-80
2024/04/18 05:01:56;;;;;;;4.27;1.90;;;;;;;5.24;100.00;101820.13;5396452;26;20273;-80
2024/04/18 05:04:23;;;;;;;3.83;1.67;;;;;;;5.25;100.00;101807.56;5367715;26;20265;-80
2024/04/18 05:06:50;;;;;;;4.33;2.17;;;;;;;5.51;100.00;101837.22;5368713;26;20385;-80
2024/04/18 05:09:21;;;;;;;4.77;2.10;;;;;;;5.55;100.00;101818.00;5385158;26;20307;-80
2024/04/18 05:11:49;;;;;;;6.63;1.70;;;;;;;5.78;100.00;101834.50;5368018;26;20365;-79
2024/04/18 05:14:16;;;;;;;7.73;2.40;;;;;;;5.82;100.00;101833.22;5386766;26;20257;-80
2024/04/18 05:16:43;;;;;;;2.10;1.45;;;;;;;5.98;100.00;101846.81;5385375;26;20262;-80
2024/04/18 05:19:11;;;;;;;5.47;2.00;;;;;;;6.03;100.00;101844.50;5353893;26;20353;-80
2024/04/18 05:21:38;;;;;;;3.28;1.40;;;;;;;6.15;100.00;101851.31;5350731;26;20763;-80
2024/04/18 05:24:06;;;;;;;4.15;1.20;;;;;;;6.30;100.00;101863.22;5377718;26;20262;-80
2024/04/18 05:26:34;;;;;;;3.13;1.40;;;;;;;6.42;100.00;101857.41;5374188;26;20304;-80
2024/04/18 05:31:48;;;;;;;4.65;1.40;;;;;;;6.57;100.00;101846.94;5379583;26;20265;-80
2024/04/18 05:34:15;;;;;;;4.75;1.27;;;;;;;6.74;100.00;101870.25;5372053;26;20363;-80
2024/04/18 05:36:45;;;;;;;4.10;1.00;;;;;;;6.77;100.00;101878.00;5391242;26;20258;-79
2024/04/18 05:39:13;;;;;;;3.75;0.70;;;;;;;6.93;100.00;101878.09;5380125;26;20315;-79
2024/04/18 05:41:40;;;;;;;4.00;0.82;;;;;;;7.02;100.00;101871.75;5383010;26;20268;-80
2024/04/18 05:44:07;;;;;;;2.92;0.30;;;;;;;7.12;100.00;101875.19;5333837;26;20274;-80
2024/04/18 05:46:34;;;;;;;2.95;0.40;;;;;;;7.22;100.00;101878.59;5389497;26;20686;-80
2024/04/18 05:49:02;;;;;;;2.15;0.57;;;;;;;7.14;100.00;101863.25;5400668;26;20383;-80
2024/04/18 05:51:29;;;;;;;2.22;0.30;;;;;;;7.11;100.00;101865.44;5400517;26;20726;-80
2024/04/18 05:53:56;;;;;;;1.80;0.30;;;;;;;7.24;100.00;101887.38;5391133;26;20308;-80
2024/04/18 05:56:23;;;;;;;1.30;0.30;;;;;;;7.18;100.00;101904.13;5394825;26;20270;-80
2024/04/18 05:58:51;;;;;;;1.65;0.30;;;;;;;7.11;100.00;101905.81;5396626;26;20261;-80
2024/04/18 06:01:18;;;;;;;1.33;0.50;;;;;;;6.88;100.00;101883.97;5406498;26;20261;-80
2024/04/18 06:03:45;;;;;;;1.48;0.35;;;;;;;6.94;100.00;101901.31;5399065;26;20719;-80
2024/04/18 06:06:13;;;;;;;0.85;0.30;;;;;;;6.85;100.00;101896.88;5403340;26;20269;-80
2024/04/18 06:08:40;;;;;;;1.40;0.25;;;;;;;6.76;100.00;101876.31;5398579;26;20258;-80
2024/04/18 06:11:07;;;;;;;2.17;0.30;;;;;;;6.89;100.00;101892.88;5377132;26;20669;-80
2024/04/18 06:13:38;;;;;;;1.65;0.30;;;;;;;7.05;100.00;101927.97;5406415;26;20269;-80
2024/04/18 06:16:06;;;;;;;1.50;0.30;;;;;;;7.08;100.00;101928.47;5404368;26;20729;-80
2024/04/18 06:18:34;;;;;;;0.82;0.30;;;;;;;7.15;100.00;101926.84;5407421;26;20261;-80
2024/04/18 06:21:02;;;;;;;0.80;0.30;;;;;;;7.13;100.00;101914.56;5370293;26;20292;-80
2024/04/18 06:23:29;;;;;;;1.80;0.30;;;;;;;7.26;100.00;101917.66;5395156;26;20358;-80
2024/04/18 06:25:56;;;;;;;1.30;0.20;;;;;;;7.31;100.00;101923.41;5403476;26;20291;-80
2024/04/18 06:28:24;;;;;;;0.85;0.20;;;;;;;7.31;100.00;101934.19;5397272;26;20266;-80
2024/04/18 06:30:52;;;;;;;0.82;0.20;;;;;;;7.50;100.00;101944.69;5391973;26;20331;-80
2024/04/18 06:33:19;;;;;;;3.22;0.30;;;;;;;7.62;100.00;101943.41;5367337;26;20278;-80
2024/04/18 06:35:46;;;;;;;1.10;0.30;;;;;;;7.68;100.00;101945.47;5388512;26;20608;-80
2024/04/18 06:38:14;;;;;;;0.35;0.25;;;;;;;7.76;100.00;101958.97;5384451;26;20296;-80
2024/04/18 06:40:41;;;;;;;1.17;0.30;;;;;;;7.69;100.00;101948.00;5404350;26;20321;-80
2024/04/18 06:43:08;;;;;;;1.92;0.30;;;;;;;7.63;100.00;101948.63;5402603;26;20257;-81
2024/04/18 06:45:38;;;;;;;0.95;0.20;;;;;;;7.62;100.00;101943.41;5375290;26;20665;-80
2024/04/18 06:48:08;;;;;;;0.22;0.10;;;;;;;7.72;100.00;101977.28;5406212;26;20342;-81
2024/04/18 06:50:37;;;;;;;2.15;0.10;;;;;;;7.67;100.00;101981.50;5406386;26;20260;-81
2024/04/18 06:53:05;;;;;;;3.97;0.10;;;;;;;7.69;100.00;101980.31;5402727;26;20274;-81
2024/04/18 06:55:36;;;;;;;0.28;0.08;;;;;;;7.79;100.00;101989.13;5387636;26;20297;-81
2024/04/18 06:58:03;;;;;;;4.05;0.10;;;;;;;7.83;100.00;101989.63;5405750;26;20272;-81
2024/04/18 07:00:30;;;;;;;4.35;0.38;;;;;;;7.79;100.00;101999.03;5404215;26;20266;-81
2024/04/18 07:03:01;;;;;;;2.17;0.20;;;;;;;7.78;100.00;102000.06;5404347;26;20265;-81
2024/04/18 07:05:28;;;;;;;0.80;0.10;;;;;;;7.72;100.00;101995.31;5370187;26;20342;-81
2024/04/18 07:07:57;;;;;;;2.13;0.15;;;;;;;7.60;100.00;102007.38;5405318;26;20370;-80
2024/04/18 07:10:25;;;;;;;3.50;0.10;;;;;;;7.60;100.00;101985.84;5397045;26;20310;-81
2024/04/18 07:12:52;;;;;;;3.67;0.20;;;;;;;7.83;100.00;101989.63;5402398;26;20642;-81
2024/04/18 07:15:19;;;;;;;1.65;0.10;;;;;;;7.68;100.00;101929.28;5402759;26;20265;-81
2024/04/18 07:17:46;;;;;;;1.10;0.20;;;;;;;8.28;100.00;101992.84;5406657;26;20265;-80
2024/04/18 07:20:14;;;;;;;1.58;0.20;;;;;;;8.67;100.00;101993.91;5396538;26;20304;-81
2024/04/18 07:22:42;;;;;;;4.65;0.20;;;;;;;9.66;100.00;101988.03;5396697;26;20265;-81
2024/04/18 07:25:09;;;;;;;2.33;0.20;;;;;;;10.17;100.00;101987.50;5402983;26;20265;-81
2024/04/18 07:27:36;;;;;;;3.22;0.10;;;;;;;11.40;100.00;101983.44;5386987;26;20274;-81
2024/04/18 07:30:04;;;;;;;0.82;0.10;;;;;;;12.74;100.00;102013.56;5404528;26;20297;-81
2024/04/18 07:32:32;;;;;;;1.27;0.15;;;;;;;14.31;100.00;102024.56;5405898;26;20283;-81
2024/04/18 07:35:00;;;;;;;0.85;0.05;;;;;;;13.84;100.00;102018.25;5403225;26;20295;-81
2024/04/18 07:37:27;;;;;;;0.50;0.10;;;;;;;13.84;100.00;102067.22;5396538;26;20282;-81
2024/04/18 07:40:02;;;;;;;1.05;0.10;;;;;;;13.78;100.00;102049.81;5372393;26;20265;-81
2024/04/18 07:42:29;;;;;;;1.38;0.10;;;;;;;13.71;100.00;102073.41;5329283;26;20299;-82
2024/04/18 07:44:57;;;;;;;1.55;0.10;;;;;;;12.98;100.00;102066.72;5403047;26;20269;-81
2024/04/18 07:47:24;;;;;;;1.80;0.10;;;;;;;12.40;100.00;102075.84;5402478;26;20722;-81
2024/04/18 07:49:51;;;;;;;2.03;0.20;;;;;;;12.71;100.00;102056.56;5387091;26;20266;-81
2024/04/18 07:52:21;;;;;;;1.45;0.10;;;;;;;14.04;100.00;102063.59;5399636;26;20260;-81
2024/04/18 07:54:49;;;;;;;1.88;0.10;;;;;;;14.66;100.00;102075.22;5405204;26;20257;-81
2024/04/18 07:57:16;;;;;;;2.25;0.10;;;;;;;15.44;100.00;102057.31;5398800;26;21166;-81
2024/04/18 07:59:44;;;;;;;2.15;0.10;;;;;;;15.60;100.00;102076.00;5403177;26;20724;-81
2024/04/18 08:02:13;;;;;;;1.02;0.10;;;;;;;15.91;100.00;102092.56;5405488;26;20265;-81
2024/04/18 08:04:43;;;;;;;0.28;0.10;;;;;;;15.78;100.00;102114.41;5403421;26;20303;-80
2024/04/18 08:07:23;;;;;;;0.50;0.03;;;;;;;15.85;100.00;102115.22;5393991;26;20538;-81
2024/04/18 08:09:56;;;;;;;0.63;0.10;;;;;;;15.58;100.00;102121.75;5403009;26;20265;-80
2024/04/18 08:12:30;;;;;;;1.63;0.10;;;;;;;14.83;100.00;102119.28;5405296;26;20277;-81
2024/04/18 08:15:04;;;;;;;0.65;0.10;;;;;;;14.66;100.00;102123.41;5405165;26;20257;-81
2024/04/18 08:17:40;;;;;;;1.95;0.20;;;;;;;14.22;100.00;102126.56;5405085;26;20269;-81
2024/04/18 08:20:08;;;;;;;1.30;0.05;;;;;;;14.31;100.00;102133.53;5398471;26;20262;-81
2024/04/18 08:22:35;;;;;;;1.95;0.10;;;;;;;16.23;100.00;102140.81;5386053;26;20270;-81
2024/04/18 08:25:03;;;;;;;1.05;0.10;;;;;;;16.83;100.00;102132.22;5380149;26;20261;-81
2024/04/18 08:27:30;;;;;;;0.82;0.10;;;;;;;17.40;100.00;102124.75;5397223;26;20883;-81
2024/04/18 08:29:57;;;;;;;0.70;0.10;;;;;;;18.80;100.00;102142.13;5400996;26;20366;-81
2024/04/18 08:32:25;;;;;;;2.15;0.10;;;;;;;18.86;100.00;102125.56;5393909;26;20702;-81
2024/04/18 08:34:52;;;;;;;1.48;0.00;;;;;;;19.80;100.00;102153.13;5401105;26;20361;-81
2024/04/18 08:37:20;;;;;;;0.13;0.00;;;;;;;19.54;100.00;102159.06;5366734;26;20315;-81
2024/04/18 08:39:50;;;;;;;0.40;0.10;;;;;;;19.52;100.00;102155.69;5396165;26;20268;-80
2024/04/18 08:42:22;;;;;;;3.00;0.20;;;;;;;20.08;100.00;102167.00;5396841;26;20257;-81
2024/04/18 08:44:55;;;;;;;1.85;0.10;;;;;;;19.40;100.00;102152.06;5398547;26;20260;-80
2024/04/18 08:47:31;;;;;;;2.13;0.10;;;;;;;19.17;100.00;102122.59;5403899;26;20296;-81
2024/04/18 08:50:01;;;;;;;1.40;0.10;;;;;;;17.29;100.00;102161.03;5368299;26;20732;-81
2024/04/18 08:52:33;;;;;;;1.30;0.10;;;;;;;17.81;100.00;102159.81;5400774;26;20773;-81
2024/04/18 08:55:02;;;;;;;1.20;0.10;;;;;;;18.22;100.00;102168.28;5398310;26;20312;-78
2024/04/18 08:57:34;;;;;;;2.58;0.10;;;;;;;18.87;100.00;102173.91;5404082;26;20257;-80
2024/04/18 09:00:03;;;;;;;0.93;0.10;;;;;;;18.06;100.00;102172.47;5405003;26;20311;-80
2024/04/18 09:02:31;;;;;;;1.13;0.10;;;;;;;18.18;100.00;102172.56;5403463;26;20284;-80
2024/04/18 09:04:58;;;;;;;2.72;0.20;;;;;;;17.41;100.00;102169.41;5399831;26;20272;-80
2024/04/18 09:07:26;;;;;;;1.38;0.10;;;;;;;15.27;100.00;102165.16;5371746;26;20261;-80
2024/04/18 09:10:03;;;;;;;1.15;0.10;;;;;;;15.22;100.00;102162.22;5366946;26;20347;-79
2024/04/18 09:12:30;;;;;;;3.42;0.20;;;;;;;17.22;100.00;102164.84;5395481;26;20679;-80
2024/04/18 09:14:58;;;;;;;1.50;0.10;;;;;;;18.82;100.00;102181.97;5396346;26;20261;-80
2024/04/18 09:17:27;;;;;;;2.15;0.10;;;;;;;17.73;100.00;102165.56;5391667;26;20261;-80
2024/04/18 09:19:55;;;;;;;1.10;0.10;;;;;;;16.95;100.00;102175.09;5402080;26;20345;-80
2024/04/18 09:22:22;;;;;;;0.32;0.10;;;;;;;16.31;100.00;102146.88;5401425;26;20261;-80
2024/04/18 09:24:49;;;;;;;0.95;0.10;;;;;;;17.21;100.00;102163.16;5402992;26;20382;-80
2024/04/18 09:27:17;;;;;;;1.25;0.10;;;;;;;18.56;100.00;102185.03;5364800;26;20811;-80
2024/04/18 09:29:44;;;;;;;1.08;0.00;;;;;;;19.28;100.00;102181.41;5395295;26;20269;-80
2024/04/18 09:32:14;;;;;;;0.85;0.05;;;;;;;20.06;100.00;102190.31;5402990;26;20252;-80
2024/04/18 09:34:43;;;;;;;0.47;0.00;;;;;;;19.88;86.48;102194.00;5400348;26;20397;-80
2024/04/18 09:37:12;;;;;;;1.05;0.10;;;;;;;20.92;88.31;102194.84;5398683;26;20292;-80
2024/04/18 09:39:43;;;;;;;1.08;0.10;;;;;;;21.61;82.82;102204.75;5387368;26;20789;-80
2024/04/18 09:42:29;;;;;;;0.10;0.00;;;;;;;20.76;81.71;102187.31;5382721;26;20302;-80
2024/04/18 09:45:03;;;;;;;0.35;0.00;;;;;;;19.50;82.27;102179.81;5407308;26;20291;-80
2024/04/18 09:47:32;;;;;;;1.55;0.00;;;;;;;17.72;85.41;102174.88;5406754;26;20268;-80
2024/04/18 09:50:00;;;;;;;0.70;0.00;;;;;;;17.24;100.00;102179.16;5407862;26;20336;-80
2024/04/18 09:52:27;;;;;;;0.47;0.00;;;;;;;17.67;100.00;102182.88;5369142;26;20262;-80
2024/04/18 09:54:56;;;;;;;1.08;0.10;;;;;;;19.19;99.37;102194.59;5389881;26;20367;-79
2024/04/18 09:57:25;;;;;;;1.73;0.10;;;;;;;18.59;94.33;102194.72;5381496;26;20360;-80
2024/04/18 09:59:53;;;;;;;1.08;0.00;;;;;;;18.16;100.00;102183.72;5399783;26;20270;-80
2024/04/18 10:02:23;;;;;;;2.85;0.10;;;;;;;17.29;100.00;102176.59;5366830;26;20261;-80
2024/04/18 10:04:51;;;;;;;1.17;0.10;;;;;;;16.79;100.00;102185.66;5406495;26;20261;-79
2024/04/18 10:07:20;;;;;;;1.10;0.10;;;;;;;16.15;100.00;102165.63;5404603;26;20269;-80
2024/04/18 10:09:50;;;;;;;0.70;0.05;;;;;;;16.77;100.00;102182.31;5406995;26;20397;-79
2024/04/18 10:12:18;;;;;;;0.17;0.10;;;;;;;17.60;100.00;102174.72;5406674;26;20369;-80
2024/04/18 10:14:45;;;;;;;1.48;0.10;;;;;;;18.33;100.00;102171.13;5406209;26;20264;-80
2024/04/18 10:17:30;;;;;;;0.50;0.00;;;;;;;18.96;100.00;102202.72;5407166;26;21021;-80
2024/04/18 10:20:01;;;;;;;0.68;0.10;;;;;;;19.21;100.00;102172.41;5406621;26;20360;-80
2024/04/18 10:22:29;;;;;;;0.17;0.10;;;;;;;20.15;92.84;102195.25;5405572;26;20794;-80
2024/04/18 10:25:20;;;;;;;1.15;0.05;;;;;;;20.61;91.18;102195.25;5384035;26;20276;-80
2024/04/18 10:27:47;;;;;;;0.40;0.00;;;;;;;20.14;100.00;102204.59;5403713;26;20260;-80
2024/04/18 10:30:17;;;;;;;0.77;0.10;;;;;;;20.11;83.38;102210.56;5405718;26;20276;-80
2024/04/18 10:32:47;;;;;;;1.27;0.00;;;;;;;20.89;87.20;102208.25;5406607;26;20372;-80
2024/04/18 10:35:17;;;;;;;0.30;0.00;;;;;;;20.05;78.61;102210.66;5406761;26;20271;-80
2024/04/18 10:37:50;;;;;;;0.20;0.00;;;;;;;18.39;94.80;102185.84;5392660;26;20265;-80
2024/04/18 10:40:18;;;;;;;0.50;0.10;;;;;;;19.05;99.46;102201.31;5405970;26;20319;-79
2024/04/18 10:42:45;;;;;;;0.32;0.00;;;;;;;19.68;89.39;102209.97;5404266;26;20346;-80
2024/04/18 10:45:15;;;;;;;0.47;0.00;;;;;;;18.61;98.98;102209.06;5372350;26;20261;-79
2024/04/18 10:47:48;;;;;;;1.95;0.10;;;;;;;18.50;100.00;102187.84;5401836;26;20273;-79
2024/04/18 10:50:18;;;;;;;1.35;0.10;;;;;;;18.37;100.00;102194.31;5405644;26;20257;-80
2024/04/18 10:52:47;;;;;;;0.45;0.10;;;;;;;18.41;100.00;102191.97;5406089;26;20296;-79
2024/04/18 10:55:14;;;;;;;0.73;0.10;;;;;;;19.13;100.00;102208.41;5373972;26;20373;-80
2024/04/18 10:57:42;;;;;;;0.50;0.00;;;;;;;19.31;100.00;102200.16;5406413;26;20324;-80
2024/04/18 11:00:15;;;;;;;1.05;0.10;;;;;;;18.53;100.00;102209.34;5397340;26;20296;-80
2024/04/18 11:02:42;;;;;;;1.35;0.10;;;;;;;18.62;100.00;102192.34;5401715;26;20265;-80
2024/04/18 11:05:10;;;;;;;1.33;0.10;;;;;;;18.18;100.00;102208.19;5404789;26;20269;-79
2024/04/18 11:07:37;;;;;;;0.80;0.10;;;;;;;17.61;100.00;102192.81;5403813;26;20334;-79
2024/04/18 11:10:04;;;;;;;1.75;0.00;;;;;;;18.03;100.00;102193.97;5373794;26;20316;-79
2024/04/18 11:12:32;;;;;;;0.85;0.00;;;;;;;17.69;100.00;102205.44;5401595;26;20363;-79
2024/04/18 11:15:00;;;;;;;0.40;0.08;;;;;;;17.49;100.00;102200.06;5374542;26;20309;-79
2024/04/18 11:17:29;;;;;;;0.52;0.10;;;;;;;16.59;100.00;102190.38;5405606;26;20304;-79
2024/04/18 11:19:57;;;;;;;0.30;0.00;;;;;;;16.26;100.00;102192.28;5369091;26;20340;-79
2024/04/18 11:22:25;;;;;;;1.27;0.00;;;;;;;16.19;100.00;102200.50;5409532;26;20274;-79
2024/04/18 11:24:52;;;;;;;1.60;0.10;;;;;;;15.47;100.00;102194.16;5416985;26;20261;-79
2024/04/18 11:27:25;;;;;;;1.13;0.00;;;;;;;15.07;100.00;102191.53;5409020;26;20273;-79
2024/04/18 11:29:53;;;;;;;0.38;0.00;;;;;;;14.91;100.00;102175.53;5413756;26;20330;-79